sensor_id;sensor_type;location;lat;lon;timestamp;P1;durP1;ratioP1;P2;durP2;ratioP2
31182;SDS011;17813;0.000;0.000;2022-11-20T04:26:10;31.43;;;20.07;;
31182;SDS011;17813;0.000;0.000;2022-11-20T04:28:37;30.50;;;19.70;;
31182;SDS011;17813;0.000;0.000;2022-11-20T04:31:09;32.93;;;21.03;;
31182;SDS011;17813;0.000;0.000;2022-11-20T04:33:54;32.60;;;19.97;;
31182;SDS011;17813;0.000;0.000;2022-11-20T04:36:22;31.67;;;19.33;;
31182;SDS011;17813;0.000;0.000;2022-11-20T04:38:53;29.13;;;19.60;;
31182;SDS011;17813;0.000;0.000;2022-11-20T04:41:22;31.13;;;20.30;;
31182;SDS011;17813;0.000;0.000;2022-11-20T04:43:51;29.67;;;19.43;;
31182;SDS011;17813;0.000;0.000;2022-11-20T04:46:25;28.23;;;19.33;;
31182;SDS011;17813;0.000;0.000;2022-11-20T04:48:53;26.63;;;18.90;;
31182;SDS011;17813;0.000;0.000;2022-11-20T04:51:20;33.30;;;19.73;;
31182;SDS011;17813;0.000;0.000;2022-11-20T04:53:47;28.17;;;18.63;;
31182;SDS011;17813;0.000;0.000;2022-11-20T04:56:14;29.80;;;19.00;;
31182;SDS011;17813;0.000;0.000;2022-11-20T04:58:42;28.03;;;19.47;;
31182;SDS011;17813;0.000;0.000;2022-11-20T05:01:13;30.97;;;20.50;;
31182;SDS011;17813;0.000;0.000;2022-11-20T05:03:56;27.37;;;18.50;;
31182;SDS011;17813;0.000;0.000;2022-11-20T05:06:23;29.27;;;19.13;;
31182;SDS011;17813;0.000;0.000;2022-11-20T05:08:50;25.97;;;18.37;;
31182;SDS011;17813;0.000;0.000;2022-11-20T05:11:18;26.43;;;17.90;;
31182;SDS011;17813;0.000;0.000;2022-11-20T05:13:47;28.33;;;19.27;;
31182;SDS011;17813;0.000;0.000;2022-11-20T05:16:20;28.67;;;19.17;;
31182;SDS011;17813;0.000;0.000;2022-11-20T05:18:50;28.67;;;18.47;;
31182;SDS011;17813;0.000;0.000;2022-11-20T05:21:18;29.33;;;18.77;;
31182;SDS011;17813;0.000;0.000;2022-11-20T05:23:45;28.80;;;19.13;;
31182;SDS011;17813;0.000;0.000;2022-11-20T06:28:00;27.37;;;16.93;;
31182;SDS011;17813;0.000;0.000;2022-11-20T06:30:26;25.93;;;17.07;;
31182;SDS011;17813;0.000;0.000;2022-11-20T06:32:53;28.50;;;17.37;;
31182;SDS011;17813;0.000;0.000;2022-11-20T06:35:20;25.53;;;16.70;;
31182;SDS011;17813;0.000;0.000;2022-11-20T06:37:47;26.27;;;16.60;;
31182;SDS011;17813;0.000;0.000;2022-11-20T06:40:14;27.20;;;16.80;;
31182;SDS011;17813;0.000;0.000;2022-11-20T06:42:41;26.00;;;17.37;;
31182;SDS011;17813;0.000;0.000;2022-11-20T06:45:08;25.60;;;16.80;;
31182;SDS011;17813;0.000;0.000;2022-11-20T06:47:35;24.97;;;17.77;;
31182;SDS011;17813;0.000;0.000;2022-11-20T06:50:06;26.77;;;17.00;;
31182;SDS011;17813;0.000;0.000;2022-11-20T06:52:33;23.40;;;16.47;;
31182;SDS011;17813;0.000;0.000;2022-11-20T06:55:00;29.03;;;17.80;;
31182;SDS011;17813;0.000;0.000;2022-11-20T06:57:27;28.33;;;17.90;;
31182;SDS011;17813;0.000;0.000;2022-11-20T06:59:53;27.47;;;17.37;;
31182;SDS011;17813;0.000;0.000;2022-11-20T07:02:21;27.50;;;17.70;;
31182;SDS011;17813;0.000;0.000;2022-11-20T07:04:47;28.43;;;18.10;;
31182;SDS011;17813;0.000;0.000;2022-11-20T07:07:14;25.00;;;16.83;;
31182;SDS011;17813;0.000;0.000;2022-11-20T07:09:41;27.80;;;17.93;;
31182;SDS011;17813;0.000;0.000;2022-11-20T07:12:08;25.77;;;16.73;;
31182;SDS011;17813;0.000;0.000;2022-11-20T07:14:35;26.03;;;17.20;;
31182;SDS011;17813;0.000;0.000;2022-11-20T07:17:02;28.33;;;18.10;;
31182;SDS011;17813;0.000;0.000;2022-11-20T07:19:35;24.90;;;16.33;;
31182;SDS011;17813;0.000;0.000;2022-11-20T07:22:01;27.90;;;17.67;;
31182;SDS011;17813;0.000;0.000;2022-11-20T07:24:28;25.43;;;16.90;;
31182;SDS011;17813;0.000;0.000;2022-11-20T07:26:55;25.43;;;17.33;;
31182;SDS011;17813;0.000;0.000;2022-11-20T07:29:22;26.73;;;17.90;;
31182;SDS011;17813;0.000;0.000;2022-11-20T07:31:49;27.13;;;17.03;;
31182;SDS011;17813;0.000;0.000;2022-11-20T07:34:18;28.33;;;18.00;;
31182;SDS011;17813;0.000;0.000;2022-11-20T07:36:49;28.67;;;18.10;;
31182;SDS011;17813;0.000;0.000;2022-11-20T07:39:17;27.40;;;18.03;;
31182;SDS011;17813;0.000;0.000;2022-11-20T07:41:44;28.77;;;17.47;;
31182;SDS011;17813;0.000;0.000;2022-11-20T07:44:12;26.70;;;17.90;;
31182;SDS011;17813;0.000;0.000;2022-11-20T07:46:45;30.03;;;19.67;;
31182;SDS011;17813;0.000;0.000;2022-11-20T07:49:12;33.17;;;22.10;;
31182;SDS011;17813;0.000;0.000;2022-11-20T07:51:39;33.03;;;22.37;;
31182;SDS011;17813;0.000;0.000;2022-11-20T07:54:06;30.57;;;21.87;;
31182;SDS011;17813;0.000;0.000;2022-11-20T07:56:33;29.30;;;20.73;;
31182;SDS011;17813;0.000;0.000;2022-11-20T07:59:00;27.93;;;20.67;;
31182;SDS011;17813;0.000;0.000;2022-11-20T08:01:27;25.53;;;19.80;;
31182;SDS011;17813;0.000;0.000;2022-11-20T08:03:54;24.30;;;19.17;;
31182;SDS011;17813;0.000;0.000;2022-11-20T08:06:21;27.57;;;19.90;;
31182;SDS011;17813;0.000;0.000;2022-11-20T08:08:48;26.27;;;19.53;;
31182;SDS011;17813;0.000;0.000;2022-11-20T08:11:15;22.63;;;18.60;;
31182;SDS011;17813;0.000;0.000;2022-11-20T08:14:00;22.80;;;18.87;;
31182;SDS011;17813;0.000;0.000;2022-11-20T08:16:41;24.97;;;20.07;;
31182;SDS011;17813;0.000;0.000;2022-11-20T08:19:14;26.47;;;20.90;;
31182;SDS011;17813;0.000;0.000;2022-11-20T08:21:47;27.77;;;22.00;;
31182;SDS011;17813;0.000;0.000;2022-11-20T08:24:15;27.67;;;21.27;;
31182;SDS011;17813;0.000;0.000;2022-11-20T08:26:42;29.50;;;20.50;;
31182;SDS011;17813;0.000;0.000;2022-11-20T08:29:09;25.17;;;20.27;;
31182;SDS011;17813;0.000;0.000;2022-11-20T08:31:36;24.07;;;19.17;;
31182;SDS011;17813;0.000;0.000;2022-11-20T08:34:03;21.77;;;19.40;;
31182;SDS011;17813;0.000;0.000;2022-11-20T10:47:44;22.50;;;17.93;;
31182;SDS011;17813;0.000;0.000;2022-11-20T10:50:11;24.07;;;19.70;;
31182;SDS011;17813;0.000;0.000;2022-11-20T10:52:49;22.63;;;17.70;;
31182;SDS011;17813;0.000;0.000;2022-11-20T10:55:45;26.67;;;19.07;;
31182;SDS011;17813;0.000;0.000;2022-11-20T10:58:42;23.03;;;18.47;;
31182;SDS011;17813;0.000;0.000;2022-11-20T11:01:39;22.23;;;17.60;;
31182;SDS011;17813;0.000;0.000;2022-11-20T11:09:56;22.63;;;17.63;;
31182;SDS011;17813;0.000;0.000;2022-11-20T11:12:24;22.73;;;18.20;;
31182;SDS011;17813;0.000;0.000;2022-11-20T11:14:53;21.30;;;17.80;;
31182;SDS011;17813;0.000;0.000;2022-11-20T11:17:26;24.37;;;18.77;;
31182;SDS011;17813;0.000;0.000;2022-11-20T11:20:06;23.03;;;18.03;;
31182;SDS011;17813;0.000;0.000;2022-11-20T11:23:05;22.27;;;17.60;;
31182;SDS011;17813;0.000;0.000;2022-11-20T11:25:56;22.00;;;17.40;;
31182;SDS011;17813;0.000;0.000;2022-11-20T11:28:28;22.27;;;17.33;;
31182;SDS011;17813;0.000;0.000;2022-11-20T11:30:55;21.77;;;17.47;;
31182;SDS011;17813;0.000;0.000;2022-11-20T11:33:23;29.73;;;21.47;;
31182;SDS011;17813;0.000;0.000;2022-11-20T11:38:34;21.37;;;17.20;;
31182;SDS011;17813;0.000;0.000;2022-11-20T11:47:25;22.80;;;17.60;;
31182;SDS011;17813;0.000;0.000;2022-11-20T11:52:43;21.47;;;17.13;;
31182;SDS011;17813;0.000;0.000;2022-11-20T11:55:14;23.03;;;18.37;;
31182;SDS011;17813;0.000;0.000;2022-11-20T11:57:54;22.43;;;17.77;;
31182;SDS011;17813;0.000;0.000;2022-11-20T12:00:30;22.33;;;17.70;;
31182;SDS011;17813;0.000;0.000;2022-11-20T12:05:44;22.37;;;17.77;;
31182;SDS011;17813;0.000;0.000;2022-11-20T12:08:17;24.20;;;18.63;;
31182;SDS011;17813;0.000;0.000;2022-11-20T12:15:48;24.70;;;18.60;;
31182;SDS011;17813;0.000;0.000;2022-11-20T12:18:20;21.80;;;17.97;;
31182;SDS011;17813;0.000;0.000;2022-11-20T12:21:01;23.47;;;18.40;;
31182;SDS011;17813;0.000;0.000;2022-11-20T12:23:53;24.53;;;18.20;;
31182;SDS011;17813;0.000;0.000;2022-11-20T12:26:48;23.80;;;18.53;;
31182;SDS011;17813;0.000;0.000;2022-11-20T13:39:23;16.27;;;12.90;;
31182;SDS011;17813;0.000;0.000;2022-11-20T13:41:59;17.70;;;14.07;;
31182;SDS011;17813;0.000;0.000;2022-11-20T13:45:02;17.27;;;14.10;;
31182;SDS011;17813;0.000;0.000;2022-11-20T13:47:35;16.83;;;13.83;;
31182;SDS011;17813;0.000;0.000;2022-11-20T13:50:03;16.30;;;13.53;;
31182;SDS011;17813;0.000;0.000;2022-11-20T13:52:55;14.50;;;12.33;;
31182;SDS011;17813;0.000;0.000;2022-11-20T14:01:00;14.27;;;11.40;;
31182;SDS011;17813;0.000;0.000;2022-11-20T14:03:35;14.30;;;11.20;;
31182;SDS011;17813;0.000;0.000;2022-11-20T14:06:11;13.07;;;10.67;;
31182;SDS011;17813;0.000;0.000;2022-11-20T14:08:48;13.90;;;11.13;;
31182;SDS011;17813;0.000;0.000;2022-11-20T14:11:17;14.33;;;11.63;;
31182;SDS011;17813;0.000;0.000;2022-11-20T14:16:31;16.03;;;11.70;;
31182;SDS011;17813;0.000;0.000;2022-11-20T14:21:46;15.60;;;12.67;;
31182;SDS011;17813;0.000;0.000;2022-11-20T14:24:18;14.67;;;11.60;;
31182;SDS011;17813;0.000;0.000;2022-11-20T14:26:47;15.17;;;12.40;;
31182;SDS011;17813;0.000;0.000;2022-11-20T14:29:16;16.60;;;12.67;;
31182;SDS011;17813;0.000;0.000;2022-11-20T14:31:45;15.97;;;12.87;;
31182;SDS011;17813;0.000;0.000;2022-11-20T14:34:38;16.10;;;12.70;;
31182;SDS011;17813;0.000;0.000;2022-11-20T14:37:12;15.37;;;12.37;;
31182;SDS011;17813;0.000;0.000;2022-11-20T14:39:51;15.63;;;12.63;;
31182;SDS011;17813;0.000;0.000;2022-11-20T14:42:22;15.73;;;12.03;;
31182;SDS011;17813;0.000;0.000;2022-11-20T14:44:51;16.00;;;12.00;;
31182;SDS011;17813;0.000;0.000;2022-11-20T14:47:25;16.50;;;13.03;;
31182;SDS011;17813;0.000;0.000;2022-11-20T14:49:57;15.10;;;12.40;;
31182;SDS011;17813;0.000;0.000;2022-11-20T14:52:27;17.23;;;13.17;;
31182;SDS011;17813;0.000;0.000;2022-11-20T14:54:57;17.53;;;13.57;;
31182;SDS011;17813;0.000;0.000;2022-11-20T14:57:29;16.63;;;12.60;;
31182;SDS011;17813;0.000;0.000;2022-11-20T15:02:41;14.83;;;11.63;;
31182;SDS011;17813;0.000;0.000;2022-11-20T15:05:10;14.77;;;12.10;;
31182;SDS011;17813;0.000;0.000;2022-11-20T15:07:38;17.57;;;12.90;;
31182;SDS011;17813;0.000;0.000;2022-11-20T15:10:24;14.10;;;11.33;;
31182;SDS011;17813;0.000;0.000;2022-11-20T15:12:54;15.33;;;12.00;;
31182;SDS011;17813;0.000;0.000;2022-11-20T15:15:30;15.30;;;11.80;;
31182;SDS011;17813;0.000;0.000;2022-11-20T15:18:01;14.63;;;11.50;;
31182;SDS011;17813;0.000;0.000;2022-11-20T15:20:31;16.40;;;11.80;;
31182;SDS011;17813;0.000;0.000;2022-11-20T15:22:58;16.03;;;12.07;;
31182;SDS011;17813;0.000;0.000;2022-11-20T15:25:26;16.13;;;12.53;;
31182;SDS011;17813;0.000;0.000;2022-11-20T15:27:56;14.57;;;11.50;;
31182;SDS011;17813;0.000;0.000;2022-11-20T15:30:23;13.73;;;11.27;;
31182;SDS011;17813;0.000;0.000;2022-11-20T15:32:51;16.17;;;12.60;;
31182;SDS011;17813;0.000;0.000;2022-11-20T15:35:18;14.27;;;11.53;;
31182;SDS011;17813;0.000;0.000;2022-11-20T15:37:45;16.13;;;11.70;;
31182;SDS011;17813;0.000;0.000;2022-11-20T15:40:12;16.60;;;12.37;;
31182;SDS011;17813;0.000;0.000;2022-11-20T15:42:39;16.47;;;12.70;;
31182;SDS011;17813;0.000;0.000;2022-11-20T15:45:27;16.50;;;12.67;;
31182;SDS011;17813;0.000;0.000;2022-11-20T15:48:08;19.03;;;14.00;;
31182;SDS011;17813;0.000;0.000;2022-11-20T15:53:50;24.00;;;18.03;;
31182;SDS011;17813;0.000;0.000;2022-11-20T15:56:17;25.70;;;19.87;;
31182;SDS011;17813;0.000;0.000;2022-11-20T15:59:08;21.87;;;16.57;;
31182;SDS011;17813;0.000;0.000;2022-11-20T16:05:13;22.97;;;16.60;;
31182;SDS011;17813;0.000;0.000;2022-11-20T16:07:47;23.80;;;17.10;;
31182;SDS011;17813;0.000;0.000;2022-11-20T16:10:14;27.90;;;20.37;;
31182;SDS011;17813;0.000;0.000;2022-11-20T16:12:42;36.33;;;25.80;;
31182;SDS011;17813;0.000;0.000;2022-11-20T16:15:28;43.50;;;30.10;;
31182;SDS011;17813;0.000;0.000;2022-11-20T16:18:11;43.27;;;29.13;;
31182;SDS011;17813;0.000;0.000;2022-11-20T16:20:41;39.80;;;29.67;;
31182;SDS011;17813;0.000;0.000;2022-11-20T16:23:10;34.07;;;24.77;;
31182;SDS011;17813;0.000;0.000;2022-11-20T16:25:45;30.10;;;23.50;;
31182;SDS011;17813;0.000;0.000;2022-11-20T16:28:14;34.40;;;25.67;;
31182;SDS011;17813;0.000;0.000;2022-11-20T16:30:47;34.67;;;26.57;;
31182;SDS011;17813;0.000;0.000;2022-11-20T16:33:14;40.17;;;30.53;;
31182;SDS011;17813;0.000;0.000;2022-11-20T16:35:43;37.27;;;28.43;;
31182;SDS011;17813;0.000;0.000;2022-11-20T16:38:10;31.47;;;23.83;;
31182;SDS011;17813;0.000;0.000;2022-11-20T16:40:36;32.13;;;23.63;;
31182;SDS011;17813;0.000;0.000;2022-11-20T16:43:08;35.33;;;25.83;;
31182;SDS011;17813;0.000;0.000;2022-11-20T16:45:40;35.60;;;25.87;;
31182;SDS011;17813;0.000;0.000;2022-11-20T16:48:10;37.10;;;27.87;;
31182;SDS011;17813;0.000;0.000;2022-11-20T16:51:00;35.83;;;25.90;;
31182;SDS011;17813;0.000;0.000;2022-11-20T16:53:27;38.30;;;26.97;;
31182;SDS011;17813;0.000;0.000;2022-11-20T16:56:11;40.63;;;28.00;;
31182;SDS011;17813;0.000;0.000;2022-11-20T16:58:46;31.47;;;23.60;;
31182;SDS011;17813;0.000;0.000;2022-11-20T17:01:17;32.00;;;23.23;;
31182;SDS011;17813;0.000;0.000;2022-11-20T17:06:27;28.53;;;20.20;;
31182;SDS011;17813;0.000;0.000;2022-11-20T17:09:02;29.37;;;20.33;;
31182;SDS011;17813;0.000;0.000;2022-11-20T17:11:30;27.17;;;19.07;;
31182;SDS011;17813;0.000;0.000;2022-11-20T17:14:00;28.53;;;20.27;;
31182;SDS011;17813;0.000;0.000;2022-11-20T17:16:29;29.10;;;20.83;;
31182;SDS011;17813;0.000;0.000;2022-11-20T17:18:58;35.03;;;23.80;;
31182;SDS011;17813;0.000;0.000;2022-11-20T17:21:33;48.63;;;31.10;;
31182;SDS011;17813;0.000;0.000;2022-11-20T17:24:09;49.80;;;32.33;;
31182;SDS011;17813;0.000;0.000;2022-11-20T17:26:47;44.97;;;29.13;;
31182;SDS011;17813;0.000;0.000;2022-11-20T17:29:16;43.47;;;27.43;;
31182;SDS011;17813;0.000;0.000;2022-11-20T17:31:52;28.77;;;20.90;;
31182;SDS011;17813;0.000;0.000;2022-11-20T17:34:22;24.87;;;18.03;;
31182;SDS011;17813;0.000;0.000;2022-11-20T17:36:50;25.63;;;18.73;;
31182;SDS011;17813;0.000;0.000;2022-11-20T17:39:16;24.00;;;17.67;;
31182;SDS011;17813;0.000;0.000;2022-11-20T18:41:13;30.10;;;21.43;;
31182;SDS011;17813;0.000;0.000;2022-11-20T18:44:05;36.17;;;25.67;;
31182;SDS011;17813;0.000;0.000;2022-11-20T18:46:55;39.80;;;26.77;;
31182;SDS011;17813;0.000;0.000;2022-11-20T18:49:22;37.13;;;28.53;;
31182;SDS011;17813;0.000;0.000;2022-11-20T18:51:52;36.83;;;26.53;;
31182;SDS011;17813;0.000;0.000;2022-11-20T18:54:19;42.17;;;28.57;;
31182;SDS011;17813;0.000;0.000;2022-11-20T18:56:47;47.13;;;33.30;;
31182;SDS011;17813;0.000;0.000;2022-11-20T18:59:13;52.23;;;35.83;;
31182;SDS011;17813;0.000;0.000;2022-11-20T19:01:41;48.37;;;33.83;;
31182;SDS011;17813;0.000;0.000;2022-11-20T19:04:08;42.40;;;31.53;;
31182;SDS011;17813;0.000;0.000;2022-11-20T19:06:39;47.37;;;31.30;;
31182;SDS011;17813;0.000;0.000;2022-11-20T19:09:07;47.13;;;33.53;;
31182;SDS011;17813;0.000;0.000;2022-11-20T19:11:36;44.77;;;31.57;;
31182;SDS011;17813;0.000;0.000;2022-11-20T19:14:13;34.70;;;25.30;;
31182;SDS011;17813;0.000;0.000;2022-11-20T19:16:40;46.47;;;32.70;;
31182;SDS011;17813;0.000;0.000;2022-11-20T19:19:07;49.33;;;33.47;;
31182;SDS011;17813;0.000;0.000;2022-11-20T19:21:35;48.57;;;34.63;;
31182;SDS011;17813;0.000;0.000;2022-11-20T19:24:08;46.53;;;33.70;;
31182;SDS011;17813;0.000;0.000;2022-11-20T19:26:35;42.97;;;31.47;;
31182;SDS011;17813;0.000;0.000;2022-11-20T19:29:03;39.40;;;28.43;;
31182;SDS011;17813;0.000;0.000;2022-11-20T19:31:31;39.17;;;28.00;;
31182;SDS011;17813;0.000;0.000;2022-11-20T19:33:59;40.40;;;29.30;;
31182;SDS011;17813;0.000;0.000;2022-11-20T19:36:32;43.93;;;30.63;;
31182;SDS011;17813;0.000;0.000;2022-11-20T19:39:03;45.37;;;31.37;;
31182;SDS011;17813;0.000;0.000;2022-11-20T21:45:05;20.70;;;17.50;;
31182;SDS011;17813;0.000;0.000;2022-11-20T21:47:33;25.37;;;19.97;;
31182;SDS011;17813;0.000;0.000;2022-11-20T21:50:00;25.20;;;20.03;;
31182;SDS011;17813;0.000;0.000;2022-11-20T21:52:38;25.27;;;19.40;;
31182;SDS011;17813;0.000;0.000;2022-11-20T21:55:05;24.40;;;19.50;;
31182;SDS011;17813;0.000;0.000;2022-11-20T21:57:33;24.87;;;18.27;;
31182;SDS011;17813;0.000;0.000;2022-11-20T22:00:01;21.40;;;16.73;;
31182;SDS011;17813;0.000;0.000;2022-11-20T22:02:30;20.93;;;16.73;;
31182;SDS011;17813;0.000;0.000;2022-11-20T22:04:57;22.30;;;16.10;;
31182;SDS011;17813;0.000;0.000;2022-11-20T22:07:24;20.90;;;16.37;;
31182;SDS011;17813;0.000;0.000;2022-11-20T22:09:51;22.40;;;16.67;;
31182;SDS011;17813;0.000;0.000;2022-11-20T22:12:19;21.37;;;16.60;;
31182;SDS011;17813;0.000;0.000;2022-11-20T22:14:47;21.87;;;17.33;;
31182;SDS011;17813;0.000;0.000;2022-11-20T22:17:15;20.80;;;16.20;;
31182;SDS011;17813;0.000;0.000;2022-11-20T22:20:02;22.50;;;17.57;;
31182;SDS011;17813;0.000;0.000;2022-11-20T22:22:29;20.53;;;16.17;;
31182;SDS011;17813;0.000;0.000;2022-11-20T22:24:56;19.83;;;15.80;;
31182;SDS011;17813;0.000;0.000;2022-11-20T22:27:23;20.50;;;16.03;;
31182;SDS011;17813;0.000;0.000;2022-11-20T22:29:53;19.57;;;15.87;;
31182;SDS011;17813;0.000;0.000;2022-11-20T22:32:20;19.70;;;15.40;;
31182;SDS011;17813;0.000;0.000;2022-11-20T22:34:48;19.23;;;15.13;;
31182;SDS011;17813;0.000;0.000;2022-11-20T22:37:15;21.93;;;16.53;;
31182;SDS011;17813;0.000;0.000;2022-11-20T22:39:41;20.23;;;15.77;;
31182;SDS011;17813;0.000;0.000;2022-11-20T22:42:11;21.00;;;15.57;;
